createdAt,value
2022-07-29T00:02:36.849Z,61.69
2022-07-29T00:07:39.691Z,61.98
2022-07-29T00:12:43.870Z,62.19
2022-07-29T00:17:47.049Z,62.58
2022-07-29T00:22:49.828Z,62.82
2022-07-29T00:27:53.986Z,62.89
2022-07-29T00:32:56.864Z,62.97
2022-07-29T00:37:59.909Z,63.06
2022-07-29T00:43:06.385Z,62.77
2022-07-29T00:48:09.879Z,62.74
2022-07-29T00:53:14.650Z,62.83
2022-07-29T00:58:18.882Z,62.77
2022-07-29T01:03:21.675Z,62.88
2022-07-29T01:08:25.798Z,63.13
2022-07-29T01:13:31.824Z,63.22
2022-07-29T01:18:38.056Z,63.40
2022-07-29T01:23:56.538Z,63.58
2022-07-29T01:29:13.333Z,63.82
2022-07-29T01:34:23.016Z,64.13
2022-07-29T01:39:33.568Z,64.27
2022-07-29T01:44:41.688Z,64.69
2022-07-29T01:49:50.975Z,64.80
2022-07-29T01:54:59.708Z,65.23
2022-07-29T02:00:04.891Z,65.37
2022-07-29T02:05:11.445Z,65.65
2022-07-29T02:10:16.138Z,65.70
2022-07-29T02:15:23.801Z,65.89
2022-07-29T02:20:28.320Z,66.05
2022-07-29T02:25:37.474Z,66.33
2022-07-29T02:30:45.273Z,66.55
2022-07-29T02:35:50.640Z,66.67
2022-07-29T02:40:55.297Z,66.46
2022-07-29T02:46:03.068Z,66.67
2022-07-29T02:51:10.284Z,66.58
2022-07-29T02:56:22.344Z,66.56
2022-07-29T03:01:35.134Z,66.72
2022-07-29T03:06:40.709Z,67.03
2022-07-29T03:11:50.393Z,67.61
2022-07-29T03:16:55.469Z,67.63
2022-07-29T03:21:59.173Z,68.04
2022-07-29T03:27:02.474Z,68.12
2022-07-29T03:32:08.949Z,68.62
2022-07-29T03:37:11.945Z,68.66
2022-07-29T03:42:17.681Z,68.98
2022-07-29T03:47:39.324Z,69.59
2022-07-29T03:52:51.245Z,69.71
2022-07-29T03:57:54.343Z,69.86
2022-07-29T04:02:59.027Z,70.20
2022-07-29T04:08:01.913Z,70.35
2022-07-29T04:13:04.763Z,70.63
2022-07-29T04:18:08.931Z,70.74
2022-07-29T04:23:11.932Z,70.99
2022-07-29T04:28:14.730Z,70.88
2022-07-29T04:33:21.249Z,71.20
2022-07-29T04:38:27.653Z,70.91
2022-07-29T04:43:30.430Z,71.15
2022-07-29T04:48:41.064Z,70.98
2022-07-29T04:53:43.933Z,71.02
2022-07-29T04:58:46.728Z,71.09
2022-07-29T05:03:50.961Z,70.82
2022-07-29T05:08:53.753Z,70.58
2022-07-29T05:13:56.498Z,70.75
2022-07-29T05:19:00.647Z,70.69
2022-07-29T05:24:03.459Z,70.41
2022-07-29T05:29:06.349Z,70.15
2022-07-29T05:34:10.522Z,69.91
2022-07-29T05:39:14.606Z,69.46
2022-07-29T05:44:17.718Z,68.84
2022-07-29T05:49:27.015Z,68.37
2022-07-29T05:54:30.306Z,67.86
2022-07-29T05:59:33.432Z,67.38
2022-07-29T06:04:37.658Z,66.98
2022-07-29T06:09:40.488Z,66.28
2022-07-29T06:14:43.370Z,65.84
2022-07-29T06:19:47.519Z,65.12
2022-07-29T06:24:50.340Z,64.43
2022-07-29T06:29:53.120Z,62.85
2022-07-29T06:35:24.410Z,61.62
2022-07-29T06:40:37.481Z,60.72
2022-07-29T06:45:42.351Z,59.61
2022-07-29T06:50:46.801Z,58.68
2022-07-29T06:55:49.640Z,58.06
2022-07-29T07:00:52.494Z,57.25
2022-07-29T07:05:57.363Z,57.33
2022-07-29T07:11:00.439Z,57.00
2022-07-29T07:16:03.523Z,56.46
2022-07-29T07:21:07.850Z,55.92
2022-07-29T07:26:11.809Z,54.55
2022-07-29T07:31:15.228Z,54.57
2022-07-29T07:36:19.419Z,54.77
2022-07-29T07:41:22.359Z,54.04
2022-07-29T07:46:25.220Z,53.99
2022-07-29T07:51:29.443Z,53.40
2022-07-29T07:56:35.281Z,52.61
2022-07-29T08:01:48.051Z,51.23
2022-07-29T08:07:00.896Z,50.34
2022-07-29T08:12:06.634Z,49.68
2022-07-29T08:17:09.447Z,49.44
2022-07-29T08:22:13.578Z,49.15
2022-07-29T08:27:41.809Z,49.09
2022-07-29T08:32:55.632Z,48.72
2022-07-29T08:38:00.307Z,48.92
2022-07-29T08:43:08.871Z,48.71
2022-07-29T08:48:11.688Z,48.49
2022-07-29T08:53:17.307Z,48.09
2022-07-29T08:58:23.239Z,48.76
2022-07-29T09:03:32.452Z,49.04
2022-07-29T09:08:37.329Z,49.03
2022-07-29T09:13:40.162Z,49.06
2022-07-29T09:18:44.222Z,49.46
2022-07-29T09:29:20.815Z,47.57
2022-07-29T09:34:27.266Z,46.85
2022-07-29T09:39:32.280Z,44.97
2022-07-29T09:44:49.023Z,44.13
2022-07-29T09:49:58.887Z,42.70
2022-07-29T09:55:09.028Z,42.96
2022-07-29T10:00:15.924Z,42.51
2022-07-29T10:05:22.717Z,42.60
2022-07-29T10:10:27.307Z,42.77
2022-07-29T10:15:33.672Z,42.84
2022-07-29T10:20:37.490Z,42.11
2022-07-29T10:25:45.671Z,42.42
2022-07-29T10:30:53.793Z,41.84
2022-07-29T10:36:27.017Z,38.62
2022-07-29T10:41:47.583Z,37.75
2022-07-29T10:46:52.620Z,37.26
2022-07-29T10:52:05.767Z,37.90
2022-07-29T10:57:21.610Z,37.71
2022-07-29T11:02:52.971Z,37.87
2022-07-29T11:08:26.455Z,36.55
2022-07-29T11:13:53.273Z,36.51
2022-07-29T11:19:29.770Z,37.14
2022-07-29T11:24:34.995Z,37.14
2022-07-29T11:29:41.539Z,37.23
2022-07-29T11:34:48.790Z,36.63
2022-07-29T11:40:13.111Z,37.54
2022-07-29T11:45:43.113Z,36.59
2022-07-29T11:50:44.494Z,36.27
2022-07-29T11:55:50.772Z,36.50
2022-07-29T12:00:56.311Z,36.41
2022-07-29T12:06:00.661Z,36.56
2022-07-29T12:11:03.566Z,36.63
2022-07-29T12:16:07.145Z,36.14
2022-07-29T12:21:12.454Z,35.69
2022-07-29T12:26:25.473Z,35.46
2022-07-29T12:31:41.985Z,34.61
2022-07-29T12:36:48.737Z,34.36
2022-07-29T12:41:51.534Z,33.44
2022-07-29T12:47:04.241Z,32.97
2022-07-29T12:52:30.762Z,32.86
2022-07-29T12:57:33.904Z,32.76
2022-07-29T13:02:37.536Z,32.65
2022-07-29T13:07:54.964Z,32.31
2022-07-29T13:13:08.896Z,31.78
2022-07-29T13:18:29.731Z,32.58
2022-07-29T13:23:38.405Z,32.30
2022-07-29T13:28:44.103Z,32.32
2022-07-29T13:33:47.220Z,32.60
2022-07-29T13:38:51.402Z,31.73
2022-07-29T13:43:54.257Z,31.48
2022-07-29T13:48:57.109Z,31.50
2022-07-29T13:54:01.590Z,31.35
2022-07-29T13:59:05.472Z,31.60
2022-07-29T14:04:08.390Z,31.71
2022-07-29T14:09:12.637Z,32.08
2022-07-29T14:14:15.467Z,32.26
2022-07-29T14:19:18.346Z,32.70
2022-07-29T14:24:23.785Z,32.72
2022-07-29T14:29:38.273Z,32.96
2022-07-29T14:34:41.422Z,33.00
2022-07-29T14:39:45.598Z,33.54
2022-07-29T14:44:50.321Z,33.96
2022-07-29T14:55:19.572Z,34.55
2022-07-29T15:00:23.391Z,35.00
2022-07-29T15:05:26.314Z,35.45
2022-07-29T15:10:31.203Z,35.96
2022-07-29T15:15:34.359Z,36.35
2022-07-29T15:20:37.537Z,36.77
2022-07-29T15:25:44.599Z,37.53
2022-07-29T15:30:48.273Z,37.87
2022-07-29T15:35:51.316Z,37.96
2022-07-29T15:40:57.274Z,38.17
2022-07-29T15:46:17.932Z,39.00
2022-07-29T15:51:20.871Z,39.62
2022-07-29T15:56:25.248Z,40.74
2022-07-29T16:01:28.555Z,41.87
2022-07-29T16:06:32.132Z,43.29
2022-07-29T16:11:36.766Z,44.01
2022-07-29T16:16:41.842Z,45.04
2022-07-29T16:21:45.356Z,45.90
2022-07-29T16:26:52.075Z,46.39
2022-07-29T16:31:59.468Z,47.35
2022-07-29T16:37:05.947Z,48.16
2022-07-29T16:42:36.913Z,48.81
2022-07-29T16:47:41.181Z,48.90
2022-07-29T16:52:52.605Z,49.05
2022-07-29T16:57:57.416Z,49.34
2022-07-29T17:03:14.873Z,49.22
2022-07-29T17:08:27.258Z,49.12
2022-07-29T17:13:32.291Z,49.97
2022-07-29T17:18:45.249Z,50.32
2022-07-29T17:23:52.027Z,51.07
2022-07-29T17:28:57.109Z,51.23
2022-07-29T17:34:03.387Z,51.62
2022-07-29T17:39:08.567Z,52.90
2022-07-29T17:44:13.652Z,53.49
2022-07-29T17:49:16.870Z,53.82
2022-07-29T17:54:20.422Z,54.19
2022-07-29T17:59:25.174Z,54.88
2022-07-29T18:04:29.298Z,55.05
2022-07-29T18:09:35.489Z,55.49
2022-07-29T18:14:58.473Z,55.69
2022-07-29T18:20:02.260Z,55.93
2022-07-29T18:25:05.899Z,56.43
2022-07-29T18:30:20.381Z,56.48
2022-07-29T18:35:23.653Z,57.04
2022-07-29T18:40:26.775Z,57.12
2022-07-29T18:45:36.668Z,57.17
2022-07-29T18:50:45.688Z,57.58
2022-07-29T18:56:02.405Z,57.95
2022-07-29T19:01:07.172Z,57.80
2022-07-29T19:06:21.613Z,58.17
2022-07-29T19:11:26.996Z,58.46
2022-07-29T19:16:31.260Z,58.97
2022-07-29T19:21:34.315Z,58.97
2022-07-29T19:26:39.343Z,59.77
2022-07-29T19:31:44.387Z,60.30
2022-07-29T19:36:50.256Z,60.59
2022-07-29T19:42:03.379Z,61.06
2022-07-29T19:47:12.158Z,61.60
2022-07-29T19:52:26.837Z,61.63
2022-07-29T19:57:35.937Z,61.82
2022-07-29T20:02:45.851Z,62.12
2022-07-29T20:08:09.991Z,62.80
2022-07-29T20:13:13.136Z,62.62
2022-07-29T20:23:50.627Z,63.21
2022-07-29T20:28:53.988Z,63.77
2022-07-29T20:33:59.064Z,63.85
2022-07-29T20:39:02.316Z,64.36
2022-07-29T20:44:06.327Z,64.62
2022-07-29T20:49:14.359Z,65.04
2022-07-29T20:54:19.970Z,65.36
2022-07-29T20:59:23.149Z,65.44
2022-07-29T21:04:30.924Z,65.73
2022-07-29T21:09:35.596Z,66.03
2022-07-29T21:14:57.920Z,66.00
2022-07-29T21:20:03.192Z,66.23
2022-07-29T21:25:07.022Z,66.38
2022-07-29T21:30:10.898Z,66.59
2022-07-29T21:35:30.326Z,66.91
2022-07-29T21:40:37.977Z,66.64
2022-07-29T21:45:40.832Z,66.43
2022-07-29T21:50:45.174Z,66.67
2022-07-29T21:55:48.416Z,66.65
2022-07-29T22:00:51.249Z,66.68
2022-07-29T22:05:56.136Z,66.83
2022-07-29T22:10:59.012Z,66.58
2022-07-29T22:16:01.800Z,66.83
2022-07-29T22:21:06.221Z,67.22
2022-07-29T22:26:09.187Z,67.60
2022-07-29T22:31:12.272Z,67.91
2022-07-29T22:36:16.556Z,67.97
2022-07-29T22:41:19.402Z,68.00
2022-07-29T22:46:22.293Z,68.11
2022-07-29T22:51:26.913Z,68.25
2022-07-29T22:56:29.827Z,68.42
2022-07-29T23:01:37.258Z,68.50
2022-07-29T23:06:42.299Z,68.59
2022-07-29T23:11:45.129Z,68.59
2022-07-29T23:16:48.132Z,68.68
2022-07-29T23:21:52.381Z,69.16
2022-07-29T23:26:55.239Z,69.12
2022-07-29T23:31:58.033Z,69.14
2022-07-29T23:37:02.601Z,69.41
2022-07-29T23:42:05.808Z,69.40
2022-07-29T23:47:08.644Z,69.44
2022-07-29T23:52:12.876Z,69.21
2022-07-29T23:57:15.773Z,69.05
